Aviation Digital Data Service (ADDS)

Output produced by METARs form (1356 UTC 19 February 2020)
found at http://aviationweather.gov/metar/data/
 
METAR text: EGLF 191350Z 21009KT 9999 -RA FEW015 BKN034 07/06 Q1020
Conditions at: EGLF (FARNBOROUGH , GB) observed 1350 UTC 19 February 2020
Temperature: 7.0°C (45°F)
Dewpoint: 6.0°C (43°F) [RH = 93%]
Pressure (altimeter): 30.12 inches Hg (1020.0 mb)
Winds: from the SSW (210 degrees) at 10 MPH (9 knots; 4.6 m/s)
Visibility: 6 or more miles (10+ km)
Ceiling: 3400 feet AGL
Clouds: few clouds at 1500 feet AGL
broken clouds at 3400 feet AGL
Weather: -RA  (light rain)

METAR text: EGLF 191320Z 21009KT 9999 -RA SCT026 BKN040 07/05 Q1020
Conditions at: EGLF (FARNBOROUGH , GB) observed 1320 UTC 19 February 2020
Temperature: 7.0°C (45°F)
Dewpoint: 5.0°C (41°F) [RH = 87%]
Pressure (altimeter): 30.12 inches Hg (1020.0 mb)
Winds: from the SSW (210 degrees) at 10 MPH (9 knots; 4.6 m/s)
Visibility: 6 or more miles (10+ km)
Ceiling: 4000 feet AGL
Clouds: scattered clouds at 2600 feet AGL
broken clouds at 4000 feet AGL
Weather: -RA  (light rain)

Forecast for: EGLF (FARNBOROUGH , GB)
Text: TAF EGLF 191102Z 1912/1921 21012KT 9999 SCT020
Forecast period: 1200 to 2100 UTC 19 February 2020
Forecast type: FROM: standard forecast or significant change
Winds: from the SSW (210 degrees) at 14 MPH (12 knots; 6.2 m/s)
Visibility: 6 or more miles 10+ km)
Ceiling: at least 12,000 feet AGL
Clouds: scattered clouds at 2000 feet AGL
Weather: no significant weather forecast for this period
Text: TEMPO 1912/1917 8000 -RA BKN012
Forecast period: 1200 to 1700 UTC 19 February 2020
Forecast type: TEMPORARY: The following changes expected for less than half the time period
Visibility: 5 miles (8 km)
Ceiling: 1200 feet AGL
Clouds: broken clouds at 1200 feet AGL
Weather: -RA  (light rain)
Text: PROB30
Forecast period: 1200 to 1700 UTC 19 February 2020
Forecast type: TEMPORARY: The following changes expected for less than half the time period
Visibility: 2.49 miles (4.01 km)
Ceiling: 800 feet AGL
Clouds: broken clouds at 800 feet AGL
Weather: RA  (moderate rain)
Text: TEMPO 1912/1917 4000 RA BKN008
Forecast period: 1700 to 2100 UTC 19 February 2020
Forecast type: TEMPORARY: The following changes expected for less than half the time period
Visibility: 5 miles (8 km)
Ceiling: 1200 feet AGL
Clouds: broken clouds at 1200 feet AGL
Weather: -RA  (light rain)